sensor_id;sensor_type;location;lat;lon;timestamp;P1;durP1;ratioP1;P2;durP2;ratioP2
2618;SDS011;1319;52.346;13.096;2023-12-20T00:02:20;7.07;;;5.20;;
2618;SDS011;1319;52.346;13.096;2023-12-20T00:04:45;6.07;;;5.03;;
2618;SDS011;1319;52.346;13.096;2023-12-20T00:07:10;6.33;;;5.13;;
2618;SDS011;1319;52.346;13.096;2023-12-20T00:09:35;7.00;;;4.97;;
2618;SDS011;1319;52.346;13.096;2023-12-20T00:12:00;5.23;;;4.70;;
2618;SDS011;1319;52.346;13.096;2023-12-20T00:14:26;5.83;;;4.60;;
2618;SDS011;1319;52.346;13.096;2023-12-20T00:16:51;6.70;;;5.47;;
2618;SDS011;1319;52.346;13.096;2023-12-20T00:19:16;6.43;;;5.43;;
2618;SDS011;1319;52.346;13.096;2023-12-20T00:21:41;6.83;;;5.33;;
2618;SDS011;1319;52.346;13.096;2023-12-20T00:24:07;10.17;;;5.50;;
2618;SDS011;1319;52.346;13.096;2023-12-20T00:26:32;7.27;;;5.13;;
2618;SDS011;1319;52.346;13.096;2023-12-20T00:28:57;7.17;;;5.63;;
2618;SDS011;1319;52.346;13.096;2023-12-20T00:31:22;6.70;;;4.63;;
2618;SDS011;1319;52.346;13.096;2023-12-20T00:33:48;5.83;;;4.93;;
2618;SDS011;1319;52.346;13.096;2023-12-20T00:36:13;6.13;;;4.90;;
2618;SDS011;1319;52.346;13.096;2023-12-20T00:38:38;5.70;;;4.57;;
2618;SDS011;1319;52.346;13.096;2023-12-20T00:41:03;6.87;;;5.10;;
2618;SDS011;1319;52.346;13.096;2023-12-20T00:43:29;5.63;;;4.70;;
2618;SDS011;1319;52.346;13.096;2023-12-20T00:45:54;7.07;;;4.90;;
2618;SDS011;1319;52.346;13.096;2023-12-20T00:48:20;5.83;;;4.67;;
2618;SDS011;1319;52.346;13.096;2023-12-20T00:50:45;5.23;;;4.40;;
2618;SDS011;1319;52.346;13.096;2023-12-20T00:53:10;5.23;;;4.57;;
2618;SDS011;1319;52.346;13.096;2023-12-20T00:55:36;5.50;;;4.70;;
2618;SDS011;1319;52.346;13.096;2023-12-20T00:58:01;6.27;;;4.50;;
2618;SDS011;1319;52.346;13.096;2023-12-20T01:00:26;6.77;;;5.17;;
2618;SDS011;1319;52.346;13.096;2023-12-20T01:02:52;5.20;;;4.50;;
2618;SDS011;1319;52.346;13.096;2023-12-20T01:05:20;6.43;;;5.40;;
2618;SDS011;1319;52.346;13.096;2023-12-20T01:07:48;8.30;;;5.30;;
2618;SDS011;1319;52.346;13.096;2023-12-20T01:10:13;5.97;;;5.33;;
2618;SDS011;1319;52.346;13.096;2023-12-20T01:12:38;5.67;;;5.00;;
2618;SDS011;1319;52.346;13.096;2023-12-20T01:15:04;6.30;;;5.03;;
2618;SDS011;1319;52.346;13.096;2023-12-20T01:17:29;5.57;;;5.00;;
2618;SDS011;1319;52.346;13.096;2023-12-20T01:19:54;6.00;;;4.70;;
2618;SDS011;1319;52.346;13.096;2023-12-20T01:22:20;5.80;;;5.03;;
2618;SDS011;1319;52.346;13.096;2023-12-20T01:24:45;6.47;;;4.80;;
2618;SDS011;1319;52.346;13.096;2023-12-20T01:27:10;7.23;;;5.27;;
2618;SDS011;1319;52.346;13.096;2023-12-20T01:29:35;5.90;;;4.90;;
2618;SDS011;1319;52.346;13.096;2023-12-20T01:32:00;6.77;;;4.37;;
2618;SDS011;1319;52.346;13.096;2023-12-20T01:34:26;5.80;;;5.20;;
2618;SDS011;1319;52.346;13.096;2023-12-20T01:36:51;6.07;;;4.87;;
2618;SDS011;1319;52.346;13.096;2023-12-20T01:39:17;6.90;;;5.40;;
2618;SDS011;1319;52.346;13.096;2023-12-20T01:41:42;5.73;;;4.90;;
2618;SDS011;1319;52.346;13.096;2023-12-20T01:44:07;5.90;;;5.30;;
2618;SDS011;1319;52.346;13.096;2023-12-20T01:46:32;6.80;;;5.37;;
2618;SDS011;1319;52.346;13.096;2023-12-20T01:48:57;5.60;;;4.97;;
2618;SDS011;1319;52.346;13.096;2023-12-20T01:51:23;5.73;;;5.17;;
2618;SDS011;1319;52.346;13.096;2023-12-20T01:53:48;6.60;;;5.23;;
2618;SDS011;1319;52.346;13.096;2023-12-20T01:56:14;5.93;;;5.00;;
2618;SDS011;1319;52.346;13.096;2023-12-20T01:58:43;6.57;;;5.30;;
2618;SDS011;1319;52.346;13.096;2023-12-20T02:01:08;6.90;;;5.23;;
2618;SDS011;1319;52.346;13.096;2023-12-20T02:03:34;7.77;;;6.03;;
2618;SDS011;1319;52.346;13.096;2023-12-20T02:06:01;7.10;;;5.67;;
2618;SDS011;1319;52.346;13.096;2023-12-20T02:08:26;8.67;;;6.03;;
2618;SDS011;1319;52.346;13.096;2023-12-20T02:10:52;7.97;;;6.30;;
2618;SDS011;1319;52.346;13.096;2023-12-20T02:13:17;7.50;;;5.73;;
2618;SDS011;1319;52.346;13.096;2023-12-20T02:15:42;6.13;;;5.47;;
2618;SDS011;1319;52.346;13.096;2023-12-20T02:18:08;6.03;;;5.17;;
2618;SDS011;1319;52.346;13.096;2023-12-20T02:20:34;7.43;;;5.87;;
2618;SDS011;1319;52.346;13.096;2023-12-20T02:22:59;6.30;;;5.10;;
2618;SDS011;1319;52.346;13.096;2023-12-20T02:25:24;7.00;;;5.10;;
2618;SDS011;1319;52.346;13.096;2023-12-20T02:27:49;6.77;;;5.27;;
2618;SDS011;1319;52.346;13.096;2023-12-20T02:30:14;6.13;;;5.40;;
2618;SDS011;1319;52.346;13.096;2023-12-20T02:32:40;6.07;;;5.07;;
2618;SDS011;1319;52.346;13.096;2023-12-20T02:35:05;5.13;;;4.63;;
2618;SDS011;1319;52.346;13.096;2023-12-20T02:37:30;5.37;;;4.87;;
2618;SDS011;1319;52.346;13.096;2023-12-20T02:39:56;7.30;;;5.53;;
2618;SDS011;1319;52.346;13.096;2023-12-20T02:42:21;6.57;;;5.33;;
2618;SDS011;1319;52.346;13.096;2023-12-20T02:44:46;6.97;;;5.43;;
2618;SDS011;1319;52.346;13.096;2023-12-20T02:47:11;8.10;;;5.23;;
2618;SDS011;1319;52.346;13.096;2023-12-20T02:49:36;8.60;;;5.17;;
2618;SDS011;1319;52.346;13.096;2023-12-20T02:52:02;6.33;;;4.73;;
2618;SDS011;1319;52.346;13.096;2023-12-20T02:54:27;6.50;;;4.80;;
2618;SDS011;1319;52.346;13.096;2023-12-20T02:56:52;6.97;;;5.00;;
2618;SDS011;1319;52.346;13.096;2023-12-20T02:59:17;6.00;;;4.60;;
2618;SDS011;1319;52.346;13.096;2023-12-20T03:01:46;6.00;;;5.37;;
2618;SDS011;1319;52.346;13.096;2023-12-20T03:04:11;6.87;;;5.13;;
2618;SDS011;1319;52.346;13.096;2023-12-20T03:06:37;7.77;;;5.30;;
2618;SDS011;1319;52.346;13.096;2023-12-20T03:09:02;7.60;;;5.17;;
2618;SDS011;1319;52.346;13.096;2023-12-20T03:11:27;8.77;;;6.07;;
2618;SDS011;1319;52.346;13.096;2023-12-20T03:13:53;11.67;;;6.30;;
2618;SDS011;1319;52.346;13.096;2023-12-20T03:16:19;8.47;;;5.77;;
2618;SDS011;1319;52.346;13.096;2023-12-20T03:18:44;13.60;;;6.00;;
2618;SDS011;1319;52.346;13.096;2023-12-20T03:21:09;11.00;;;5.90;;
2618;SDS011;1319;52.346;13.096;2023-12-20T03:23:34;9.43;;;6.20;;
2618;SDS011;1319;52.346;13.096;2023-12-20T03:25:59;12.27;;;6.87;;
2618;SDS011;1319;52.346;13.096;2023-12-20T03:28:25;13.10;;;7.23;;
2618;SDS011;1319;52.346;13.096;2023-12-20T03:30:51;12.80;;;7.40;;
2618;SDS011;1319;52.346;13.096;2023-12-20T03:33:16;12.57;;;7.43;;
2618;SDS011;1319;52.346;13.096;2023-12-20T03:35:41;16.47;;;7.07;;
2618;SDS011;1319;52.346;13.096;2023-12-20T03:38:06;17.50;;;7.07;;
2618;SDS011;1319;52.346;13.096;2023-12-20T03:40:32;10.33;;;6.63;;
2618;SDS011;1319;52.346;13.096;2023-12-20T03:42:57;12.13;;;7.67;;
2618;SDS011;1319;52.346;13.096;2023-12-20T03:45:22;10.97;;;7.57;;
2618;SDS011;1319;52.346;13.096;2023-12-20T03:47:47;12.47;;;7.23;;
2618;SDS011;1319;52.346;13.096;2023-12-20T03:50:13;11.80;;;6.60;;
2618;SDS011;1319;52.346;13.096;2023-12-20T03:52:38;9.73;;;6.03;;
2618;SDS011;1319;52.346;13.096;2023-12-20T03:55:04;15.00;;;6.13;;
2618;SDS011;1319;52.346;13.096;2023-12-20T03:57:29;11.07;;;5.13;;
2618;SDS011;1319;52.346;13.096;2023-12-20T03:59:54;12.13;;;5.60;;
2618;SDS011;1319;52.346;13.096;2023-12-20T04:02:20;11.07;;;5.60;;
2618;SDS011;1319;52.346;13.096;2023-12-20T04:04:45;11.43;;;6.00;;
2618;SDS011;1319;52.346;13.096;2023-12-20T04:07:11;9.00;;;5.30;;
2618;SDS011;1319;52.346;13.096;2023-12-20T04:09:36;10.27;;;5.17;;
2618;SDS011;1319;52.346;13.096;2023-12-20T04:12:01;14.43;;;4.37;;
2618;SDS011;1319;52.346;13.096;2023-12-20T04:14:26;9.90;;;4.13;;
2618;SDS011;1319;52.346;13.096;2023-12-20T04:16:52;13.10;;;3.57;;
2618;SDS011;1319;52.346;13.096;2023-12-20T04:19:17;7.40;;;3.70;;
2618;SDS011;1319;52.346;13.096;2023-12-20T04:21:42;9.97;;;3.60;;
2618;SDS011;1319;52.346;13.096;2023-12-20T04:24:08;9.27;;;3.70;;
2618;SDS011;1319;52.346;13.096;2023-12-20T04:26:33;10.23;;;3.57;;
2618;SDS011;1319;52.346;13.096;2023-12-20T04:28:58;7.00;;;3.03;;
2618;SDS011;1319;52.346;13.096;2023-12-20T04:31:23;8.43;;;3.97;;
2618;SDS011;1319;52.346;13.096;2023-12-20T04:33:48;9.30;;;3.20;;
2618;SDS011;1319;52.346;13.096;2023-12-20T04:36:14;13.10;;;3.17;;
2618;SDS011;1319;52.346;13.096;2023-12-20T04:38:39;8.07;;;3.33;;
2618;SDS011;1319;52.346;13.096;2023-12-20T04:41:04;12.20;;;3.00;;
2618;SDS011;1319;52.346;13.096;2023-12-20T04:43:29;11.03;;;2.80;;
2618;SDS011;1319;52.346;13.096;2023-12-20T04:45:55;7.40;;;2.77;;
2618;SDS011;1319;52.346;13.096;2023-12-20T04:48:20;5.27;;;2.80;;
2618;SDS011;1319;52.346;13.096;2023-12-20T04:50:45;19.47;;;3.17;;
2618;SDS011;1319;52.346;13.096;2023-12-20T04:53:10;10.03;;;3.10;;
2618;SDS011;1319;52.346;13.096;2023-12-20T04:55:35;7.57;;;2.47;;
2618;SDS011;1319;52.346;13.096;2023-12-20T04:58:01;8.63;;;2.90;;
2618;SDS011;1319;52.346;13.096;2023-12-20T05:00:26;9.57;;;3.00;;
2618;SDS011;1319;52.346;13.096;2023-12-20T05:02:51;8.33;;;2.70;;
2618;SDS011;1319;52.346;13.096;2023-12-20T05:05:17;7.97;;;3.10;;
2618;SDS011;1319;52.346;13.096;2023-12-20T05:07:43;12.33;;;2.70;;
2618;SDS011;1319;52.346;13.096;2023-12-20T05:10:08;14.43;;;2.37;;
2618;SDS011;1319;52.346;13.096;2023-12-20T05:12:34;8.57;;;2.77;;
2618;SDS011;1319;52.346;13.096;2023-12-20T05:14:59;11.77;;;2.73;;
2618;SDS011;1319;52.346;13.096;2023-12-20T05:17:25;8.10;;;2.10;;
2618;SDS011;1319;52.346;13.096;2023-12-20T05:19:50;8.37;;;2.60;;
2618;SDS011;1319;52.346;13.096;2023-12-20T05:22:15;5.50;;;1.93;;
2618;SDS011;1319;52.346;13.096;2023-12-20T05:24:41;13.47;;;2.53;;
2618;SDS011;1319;52.346;13.096;2023-12-20T05:27:06;13.67;;;2.57;;
2618;SDS011;1319;52.346;13.096;2023-12-20T05:29:31;6.67;;;2.37;;
2618;SDS011;1319;52.346;13.096;2023-12-20T05:31:57;9.50;;;2.30;;
2618;SDS011;1319;52.346;13.096;2023-12-20T05:34:23;10.30;;;2.50;;
2618;SDS011;1319;52.346;13.096;2023-12-20T05:36:48;7.37;;;2.60;;
2618;SDS011;1319;52.346;13.096;2023-12-20T05:39:13;10.07;;;2.63;;
2618;SDS011;1319;52.346;13.096;2023-12-20T05:41:38;15.00;;;2.47;;
2618;SDS011;1319;52.346;13.096;2023-12-20T05:44:03;11.17;;;2.13;;
2618;SDS011;1319;52.346;13.096;2023-12-20T05:46:29;7.13;;;2.10;;
2618;SDS011;1319;52.346;13.096;2023-12-20T05:48:54;13.53;;;2.40;;
2618;SDS011;1319;52.346;13.096;2023-12-20T05:51:19;3.87;;;2.10;;
2618;SDS011;1319;52.346;13.096;2023-12-20T05:53:44;11.77;;;3.07;;
2618;SDS011;1319;52.346;13.096;2023-12-20T05:56:10;15.43;;;2.57;;
2618;SDS011;1319;52.346;13.096;2023-12-20T05:58:35;13.17;;;2.30;;
2618;SDS011;1319;52.346;13.096;2023-12-20T06:01:01;10.50;;;2.70;;
2618;SDS011;1319;52.346;13.096;2023-12-20T06:03:28;10.90;;;2.37;;
2618;SDS011;1319;52.346;13.096;2023-12-20T06:05:53;8.43;;;2.90;;
2618;SDS011;1319;52.346;13.096;2023-12-20T06:08:19;9.27;;;2.73;;
2618;SDS011;1319;52.346;13.096;2023-12-20T06:10:44;9.20;;;2.63;;
2618;SDS011;1319;52.346;13.096;2023-12-20T06:13:09;9.67;;;2.90;;
2618;SDS011;1319;52.346;13.096;2023-12-20T06:15:34;7.13;;;2.53;;
2618;SDS011;1319;52.346;13.096;2023-12-20T06:18:00;11.23;;;3.30;;
2618;SDS011;1319;52.346;13.096;2023-12-20T06:20:25;9.50;;;2.87;;
2618;SDS011;1319;52.346;13.096;2023-12-20T06:22:51;9.07;;;2.90;;
2618;SDS011;1319;52.346;13.096;2023-12-20T06:25:16;10.13;;;3.13;;
2618;SDS011;1319;52.346;13.096;2023-12-20T06:27:41;10.00;;;3.07;;
2618;SDS011;1319;52.346;13.096;2023-12-20T06:30:06;11.83;;;3.30;;
2618;SDS011;1319;52.346;13.096;2023-12-20T06:32:32;10.13;;;2.73;;
2618;SDS011;1319;52.346;13.096;2023-12-20T06:34:57;17.53;;;3.60;;
2618;SDS011;1319;52.346;13.096;2023-12-20T06:37:22;21.33;;;3.40;;
2618;SDS011;1319;52.346;13.096;2023-12-20T06:39:48;11.47;;;3.20;;
2618;SDS011;1319;52.346;13.096;2023-12-20T06:42:13;13.17;;;3.37;;
2618;SDS011;1319;52.346;13.096;2023-12-20T06:44:38;9.07;;;2.70;;
2618;SDS011;1319;52.346;13.096;2023-12-20T06:47:04;9.57;;;2.53;;
2618;SDS011;1319;52.346;13.096;2023-12-20T06:49:29;16.90;;;2.90;;
2618;SDS011;1319;52.346;13.096;2023-12-20T06:51:54;5.63;;;2.63;;
2618;SDS011;1319;52.346;13.096;2023-12-20T06:54:19;13.00;;;2.97;;
2618;SDS011;1319;52.346;13.096;2023-12-20T06:56:45;9.00;;;2.47;;
2618;SDS011;1319;52.346;13.096;2023-12-20T06:59:10;6.93;;;2.40;;
2618;SDS011;1319;52.346;13.096;2023-12-20T07:01:35;17.50;;;2.70;;
2618;SDS011;1319;52.346;13.096;2023-12-20T07:04:00;8.37;;;2.50;;
2618;SDS011;1319;52.346;13.096;2023-12-20T07:06:25;8.17;;;2.10;;
2618;SDS011;1319;52.346;13.096;2023-12-20T07:08:51;6.73;;;2.23;;
2618;SDS011;1319;52.346;13.096;2023-12-20T07:11:17;8.67;;;2.50;;
2618;SDS011;1319;52.346;13.096;2023-12-20T07:13:42;10.97;;;2.53;;
2618;SDS011;1319;52.346;13.096;2023-12-20T07:16:07;12.67;;;2.60;;
2618;SDS011;1319;52.346;13.096;2023-12-20T07:18:32;11.03;;;2.60;;
2618;SDS011;1319;52.346;13.096;2023-12-20T07:20:58;11.23;;;2.53;;
2618;SDS011;1319;52.346;13.096;2023-12-20T07:23:23;17.33;;;2.80;;
2618;SDS011;1319;52.346;13.096;2023-12-20T07:25:48;11.80;;;2.53;;
2618;SDS011;1319;52.346;13.096;2023-12-20T07:28:13;12.60;;;2.20;;
2618;SDS011;1319;52.346;13.096;2023-12-20T07:30:39;7.57;;;2.67;;
2618;SDS011;1319;52.346;13.096;2023-12-20T07:33:04;12.23;;;2.53;;
2618;SDS011;1319;52.346;13.096;2023-12-20T07:35:30;8.43;;;2.37;;
2618;SDS011;1319;52.346;13.096;2023-12-20T07:37:55;12.20;;;2.43;;
2618;SDS011;1319;52.346;13.096;2023-12-20T07:40:20;7.30;;;2.30;;
2618;SDS011;1319;52.346;13.096;2023-12-20T07:42:45;7.27;;;1.80;;
2618;SDS011;1319;52.346;13.096;2023-12-20T07:45:11;4.70;;;2.53;;
2618;SDS011;1319;52.346;13.096;2023-12-20T07:47:36;11.40;;;2.10;;
2618;SDS011;1319;52.346;13.096;2023-12-20T07:50:02;9.33;;;2.40;;
2618;SDS011;1319;52.346;13.096;2023-12-20T07:52:27;5.70;;;1.80;;
2618;SDS011;1319;52.346;13.096;2023-12-20T07:54:53;9.20;;;1.90;;
2618;SDS011;1319;52.346;13.096;2023-12-20T07:57:18;10.10;;;2.50;;
2618;SDS011;1319;52.346;13.096;2023-12-20T07:59:43;4.00;;;2.10;;
2618;SDS011;1319;52.346;13.096;2023-12-20T08:02:09;8.67;;;2.10;;
2618;SDS011;1319;52.346;13.096;2023-12-20T08:04:34;8.40;;;2.20;;
2618;SDS011;1319;52.346;13.096;2023-12-20T08:06:59;5.70;;;2.00;;
2618;SDS011;1319;52.346;13.096;2023-12-20T08:09:25;10.63;;;2.23;;
2618;SDS011;1319;52.346;13.096;2023-12-20T08:11:50;19.17;;;2.17;;
2618;SDS011;1319;52.346;13.096;2023-12-20T08:14:15;8.53;;;2.30;;
2618;SDS011;1319;52.346;13.096;2023-12-20T08:16:41;8.07;;;2.17;;
2618;SDS011;1319;52.346;13.096;2023-12-20T08:19:06;4.77;;;1.87;;
2618;SDS011;1319;52.346;13.096;2023-12-20T08:21:31;9.77;;;2.03;;
2618;SDS011;1319;52.346;13.096;2023-12-20T08:23:56;11.60;;;2.47;;
2618;SDS011;1319;52.346;13.096;2023-12-20T08:26:22;6.00;;;2.00;;
2618;SDS011;1319;52.346;13.096;2023-12-20T08:28:48;5.70;;;2.20;;
2618;SDS011;1319;52.346;13.096;2023-12-20T08:31:17;12.30;;;2.33;;
2618;SDS011;1319;52.346;13.096;2023-12-20T08:33:43;9.23;;;2.53;;
2618;SDS011;1319;52.346;13.096;2023-12-20T08:36:08;6.77;;;2.13;;
2618;SDS011;1319;52.346;13.096;2023-12-20T08:38:34;6.00;;;2.00;;
2618;SDS011;1319;52.346;13.096;2023-12-20T08:40:59;8.43;;;2.73;;
2618;SDS011;1319;52.346;13.096;2023-12-20T08:43:24;6.63;;;2.27;;
2618;SDS011;1319;52.346;13.096;2023-12-20T08:45:49;10.00;;;2.50;;
2618;SDS011;1319;52.346;13.096;2023-12-20T08:48:15;11.10;;;2.27;;
2618;SDS011;1319;52.346;13.096;2023-12-20T08:50:40;12.47;;;2.60;;
2618;SDS011;1319;52.346;13.096;2023-12-20T08:53:05;9.63;;;2.00;;
2618;SDS011;1319;52.346;13.096;2023-12-20T08:55:30;10.13;;;2.50;;
2618;SDS011;1319;52.346;13.096;2023-12-20T08:57:56;8.23;;;2.33;;
2618;SDS011;1319;52.346;13.096;2023-12-20T09:00:21;5.20;;;2.10;;
2618;SDS011;1319;52.346;13.096;2023-12-20T09:02:49;9.43;;;1.90;;
2618;SDS011;1319;52.346;13.096;2023-12-20T09:05:14;8.80;;;2.77;;
2618;SDS011;1319;52.346;13.096;2023-12-20T09:07:39;6.87;;;2.00;;
2618;SDS011;1319;52.346;13.096;2023-12-20T09:10:05;7.50;;;1.80;;
2618;SDS011;1319;52.346;13.096;2023-12-20T09:12:30;11.20;;;2.17;;
2618;SDS011;1319;52.346;13.096;2023-12-20T09:14:55;8.00;;;2.50;;
2618;SDS011;1319;52.346;13.096;2023-12-20T09:17:20;6.60;;;2.10;;
2618;SDS011;1319;52.346;13.096;2023-12-20T09:19:48;9.33;;;2.30;;
2618;SDS011;1319;52.346;13.096;2023-12-20T09:22:13;6.43;;;2.07;;
2618;SDS011;1319;52.346;13.096;2023-12-20T09:24:38;6.00;;;2.07;;
2618;SDS011;1319;52.346;13.096;2023-12-20T09:27:04;8.73;;;2.73;;
2618;SDS011;1319;52.346;13.096;2023-12-20T09:29:29;4.23;;;1.73;;
2618;SDS011;1319;52.346;13.096;2023-12-20T09:31:55;7.37;;;2.40;;
2618;SDS011;1319;52.346;13.096;2023-12-20T09:34:20;11.97;;;2.80;;
2618;SDS011;1319;52.346;13.096;2023-12-20T09:36:47;9.40;;;2.17;;
2618;SDS011;1319;52.346;13.096;2023-12-20T09:39:15;7.93;;;2.23;;
2618;SDS011;1319;52.346;13.096;2023-12-20T09:41:44;7.93;;;2.60;;
2618;SDS011;1319;52.346;13.096;2023-12-20T09:44:13;7.73;;;2.20;;
2618;SDS011;1319;52.346;13.096;2023-12-20T09:46:39;8.57;;;1.87;;
2618;SDS011;1319;52.346;13.096;2023-12-20T09:49:07;8.53;;;2.27;;
2618;SDS011;1319;52.346;13.096;2023-12-20T09:51:32;6.20;;;2.03;;
2618;SDS011;1319;52.346;13.096;2023-12-20T09:53:58;10.10;;;1.93;;
2618;SDS011;1319;52.346;13.096;2023-12-20T09:56:24;6.77;;;2.67;;
2618;SDS011;1319;52.346;13.096;2023-12-20T09:58:50;4.17;;;2.23;;
2618;SDS011;1319;52.346;13.096;2023-12-20T10:01:15;14.43;;;2.57;;
2618;SDS011;1319;52.346;13.096;2023-12-20T10:03:41;7.73;;;2.40;;
2618;SDS011;1319;52.346;13.096;2023-12-20T10:06:06;7.10;;;2.10;;
2618;SDS011;1319;52.346;13.096;2023-12-20T10:08:32;11.63;;;2.33;;
2618;SDS011;1319;52.346;13.096;2023-12-20T10:10:57;10.00;;;2.20;;
2618;SDS011;1319;52.346;13.096;2023-12-20T10:13:27;7.30;;;2.40;;
2618;SDS011;1319;52.346;13.096;2023-12-20T10:15:52;9.10;;;2.47;;
2618;SDS011;1319;52.346;13.096;2023-12-20T10:18:20;10.13;;;2.30;;
2618;SDS011;1319;52.346;13.096;2023-12-20T10:20:45;9.63;;;2.20;;
2618;SDS011;1319;52.346;13.096;2023-12-20T10:23:11;5.67;;;2.20;;
2618;SDS011;1319;52.346;13.096;2023-12-20T10:25:37;11.03;;;2.23;;
2618;SDS011;1319;52.346;13.096;2023-12-20T10:28:09;10.77;;;2.70;;
2618;SDS011;1319;52.346;13.096;2023-12-20T10:30:34;7.27;;;2.20;;
2618;SDS011;1319;52.346;13.096;2023-12-20T10:32:59;7.07;;;2.30;;
2618;SDS011;1319;52.346;13.096;2023-12-20T10:35:24;16.20;;;2.60;;
2618;SDS011;1319;52.346;13.096;2023-12-20T10:37:50;9.50;;;2.10;;
2618;SDS011;1319;52.346;13.096;2023-12-20T10:40:18;10.80;;;2.00;;
2618;SDS011;1319;52.346;13.096;2023-12-20T10:42:43;11.10;;;2.47;;
2618;SDS011;1319;52.346;13.096;2023-12-20T10:45:09;6.93;;;2.20;;
2618;SDS011;1319;52.346;13.096;2023-12-20T10:47:34;13.57;;;2.80;;
2618;SDS011;1319;52.346;13.096;2023-12-20T10:50:00;7.70;;;2.60;;
2618;SDS011;1319;52.346;13.096;2023-12-20T10:52:26;7.47;;;2.10;;
2618;SDS011;1319;52.346;13.096;2023-12-20T10:54:52;8.37;;;2.80;;
2618;SDS011;1319;52.346;13.096;2023-12-20T10:57:18;12.87;;;2.27;;
2618;SDS011;1319;52.346;13.096;2023-12-20T10:59:43;14.17;;;2.70;;
2618;SDS011;1319;52.346;13.096;2023-12-20T11:02:10;8.00;;;2.70;;
2618;SDS011;1319;52.346;13.096;2023-12-20T11:04:42;8.30;;;2.20;;
2618;SDS011;1319;52.346;13.096;2023-12-20T11:09:57;13.20;;;2.30;;
2618;SDS011;1319;52.346;13.096;2023-12-20T11:12:38;11.10;;;2.47;;
2618;SDS011;1319;52.346;13.096;2023-12-20T11:15:05;8.00;;;2.70;;
2618;SDS011;1319;52.346;13.096;2023-12-20T11:17:31;6.00;;;2.20;;
2618;SDS011;1319;52.346;13.096;2023-12-20T11:22:22;4.90;;;2.30;;
2618;SDS011;1319;52.346;13.096;2023-12-20T11:24:49;6.07;;;2.30;;
2618;SDS011;1319;52.346;13.096;2023-12-20T11:27:15;8.67;;;2.20;;
2618;SDS011;1319;52.346;13.096;2023-12-20T11:29:40;8.00;;;2.23;;
2618;SDS011;1319;52.346;13.096;2023-12-20T11:32:27;7.77;;;2.20;;
2618;SDS011;1319;52.346;13.096;2023-12-20T11:34:56;7.53;;;2.27;;
2618;SDS011;1319;52.346;13.096;2023-12-20T11:37:27;13.80;;;2.60;;
2618;SDS011;1319;52.346;13.096;2023-12-20T11:40:00;5.37;;;2.33;;
2618;SDS011;1319;52.346;13.096;2023-12-20T11:42:25;4.37;;;2.53;;
2618;SDS011;1319;52.346;13.096;2023-12-20T11:44:50;2.80;;;1.67;;
2618;SDS011;1319;52.346;13.096;2023-12-20T11:47:16;7.13;;;2.30;;
2618;SDS011;1319;52.346;13.096;2023-12-20T11:49:44;5.17;;;2.20;;
2618;SDS011;1319;52.346;13.096;2023-12-20T11:52:11;5.07;;;2.33;;
2618;SDS011;1319;52.346;13.096;2023-12-20T11:54:36;21.20;;;3.07;;
2618;SDS011;1319;52.346;13.096;2023-12-20T11:57:02;9.47;;;2.27;;
2618;SDS011;1319;52.346;13.096;2023-12-20T11:59:27;3.63;;;1.97;;
2618;SDS011;1319;52.346;13.096;2023-12-20T12:01:52;7.73;;;2.10;;
2618;SDS011;1319;52.346;13.096;2023-12-20T12:04:17;5.50;;;2.33;;
2618;SDS011;1319;52.346;13.096;2023-12-20T12:06:43;8.13;;;2.40;;
2618;SDS011;1319;52.346;13.096;2023-12-20T12:09:08;7.83;;;2.40;;
2618;SDS011;1319;52.346;13.096;2023-12-20T12:11:33;5.70;;;2.10;;
2618;SDS011;1319;52.346;13.096;2023-12-20T12:13:59;8.73;;;2.40;;
2618;SDS011;1319;52.346;13.096;2023-12-20T12:16:24;3.77;;;2.23;;
2618;SDS011;1319;52.346;13.096;2023-12-20T12:18:56;5.73;;;2.27;;
2618;SDS011;1319;52.346;13.096;2023-12-20T12:21:22;7.17;;;1.87;;
2618;SDS011;1319;52.346;13.096;2023-12-20T12:23:47;8.60;;;2.40;;
2618;SDS011;1319;52.346;13.096;2023-12-20T12:26:12;6.20;;;2.23;;
2618;SDS011;1319;52.346;13.096;2023-12-20T12:28:41;6.70;;;2.23;;
2618;SDS011;1319;52.346;13.096;2023-12-20T12:31:07;3.70;;;2.10;;
2618;SDS011;1319;52.346;13.096;2023-12-20T12:33:32;8.23;;;2.33;;
2618;SDS011;1319;52.346;13.096;2023-12-20T12:35:57;9.00;;;2.20;;
2618;SDS011;1319;52.346;13.096;2023-12-20T12:38:22;10.87;;;2.73;;
2618;SDS011;1319;52.346;13.096;2023-12-20T12:40:49;12.77;;;2.63;;
2618;SDS011;1319;52.346;13.096;2023-12-20T12:43:14;6.57;;;2.10;;
2618;SDS011;1319;52.346;13.096;2023-12-20T12:45:40;6.17;;;2.07;;
2618;SDS011;1319;52.346;13.096;2023-12-20T12:48:05;6.63;;;2.60;;
2618;SDS011;1319;52.346;13.096;2023-12-20T12:50:30;7.40;;;2.33;;
2618;SDS011;1319;52.346;13.096;2023-12-20T12:52:56;5.60;;;2.27;;
2618;SDS011;1319;52.346;13.096;2023-12-20T12:55:21;6.00;;;2.73;;
2618;SDS011;1319;52.346;13.096;2023-12-20T12:57:46;7.00;;;3.10;;
2618;SDS011;1319;52.346;13.096;2023-12-20T13:00:11;8.40;;;2.73;;
2618;SDS011;1319;52.346;13.096;2023-12-20T13:02:37;7.57;;;2.63;;
2618;SDS011;1319;52.346;13.096;2023-12-20T13:05:03;9.17;;;3.17;;
2618;SDS011;1319;52.346;13.096;2023-12-20T13:07:29;5.53;;;2.83;;
2618;SDS011;1319;52.346;13.096;2023-12-20T13:09:54;6.23;;;3.07;;
2618;SDS011;1319;52.346;13.096;2023-12-20T13:12:19;6.20;;;2.80;;
2618;SDS011;1319;52.346;13.096;2023-12-20T13:14:46;6.97;;;2.17;;
2618;SDS011;1319;52.346;13.096;2023-12-20T13:17:11;4.73;;;2.43;;
2618;SDS011;1319;52.346;13.096;2023-12-20T13:19:37;2.67;;;1.67;;
2618;SDS011;1319;52.346;13.096;2023-12-20T13:22:02;6.87;;;3.07;;
2618;SDS011;1319;52.346;13.096;2023-12-20T13:24:27;8.53;;;2.80;;
2618;SDS011;1319;52.346;13.096;2023-12-20T13:26:52;7.23;;;2.37;;
2618;SDS011;1319;52.346;13.096;2023-12-20T13:29:17;6.47;;;2.40;;
2618;SDS011;1319;52.346;13.096;2023-12-20T13:31:43;7.37;;;2.13;;
2618;SDS011;1319;52.346;13.096;2023-12-20T13:34:08;3.10;;;1.93;;
2618;SDS011;1319;52.346;13.096;2023-12-20T13:36:33;3.10;;;1.50;;
2618;SDS011;1319;52.346;13.096;2023-12-20T13:38:58;2.67;;;1.50;;
2618;SDS011;1319;52.346;13.096;2023-12-20T13:41:24;1.10;;;1.10;;
2618;SDS011;1319;52.346;13.096;2023-12-20T13:43:49;2.47;;;1.00;;
2618;SDS011;1319;52.346;13.096;2023-12-20T13:46:14;3.57;;;1.10;;
2618;SDS011;1319;52.346;13.096;2023-12-20T13:48:39;3.30;;;1.00;;
2618;SDS011;1319;52.346;13.096;2023-12-20T13:51:05;1.57;;;0.90;;
2618;SDS011;1319;52.346;13.096;2023-12-20T13:53:30;1.10;;;1.10;;
2618;SDS011;1319;52.346;13.096;2023-12-20T13:55:56;1.63;;;0.97;;
2618;SDS011;1319;52.346;13.096;2023-12-20T13:58:22;1.37;;;1.27;;
2618;SDS011;1319;52.346;13.096;2023-12-20T14:00:48;1.47;;;1.10;;
2618;SDS011;1319;52.346;13.096;2023-12-20T14:03:13;1.03;;;1.03;;
2618;SDS011;1319;52.346;13.096;2023-12-20T14:05:38;1.10;;;1.00;;
2618;SDS011;1319;52.346;13.096;2023-12-20T14:08:03;5.30;;;1.47;;
2618;SDS011;1319;52.346;13.096;2023-12-20T14:10:29;3.13;;;1.37;;
2618;SDS011;1319;52.346;13.096;2023-12-20T14:12:54;5.10;;;1.50;;
2618;SDS011;1319;52.346;13.096;2023-12-20T14:15:20;4.47;;;1.70;;
2618;SDS011;1319;52.346;13.096;2023-12-20T14:17:45;1.97;;;1.30;;
2618;SDS011;1319;52.346;13.096;2023-12-20T14:20:10;4.43;;;1.70;;
2618;SDS011;1319;52.346;13.096;2023-12-20T14:22:38;3.23;;;1.97;;
2618;SDS011;1319;52.346;13.096;2023-12-20T14:25:03;4.77;;;1.70;;
2618;SDS011;1319;52.346;13.096;2023-12-20T14:27:29;2.37;;;1.70;;
2618;SDS011;1319;52.346;13.096;2023-12-20T14:29:54;1.93;;;1.50;;
2618;SDS011;1319;52.346;13.096;2023-12-20T14:32:19;1.73;;;1.63;;
2618;SDS011;1319;52.346;13.096;2023-12-20T14:34:45;2.03;;;1.30;;
2618;SDS011;1319;52.346;13.096;2023-12-20T14:37:10;4.07;;;1.70;;
2618;SDS011;1319;52.346;13.096;2023-12-20T14:39:36;4.20;;;1.53;;
2618;SDS011;1319;52.346;13.096;2023-12-20T14:42:06;2.00;;;1.40;;
2618;SDS011;1319;52.346;13.096;2023-12-20T14:44:31;1.67;;;1.30;;
2618;SDS011;1319;52.346;13.096;2023-12-20T14:46:57;1.30;;;1.30;;
2618;SDS011;1319;52.346;13.096;2023-12-20T14:49:22;2.30;;;1.60;;
2618;SDS011;1319;52.346;13.096;2023-12-20T14:51:47;1.73;;;1.43;;
2618;SDS011;1319;52.346;13.096;2023-12-20T14:54:13;3.83;;;1.77;;